createdAt,value
2016-04-08T00:00:07.755Z,1006.32
2016-04-08T00:00:17.755Z,1006.29
2016-04-08T00:00:27.755Z,1006.31
2016-04-08T00:00:37.743Z,1006.3
2016-04-08T00:00:47.727Z,1006.36
2016-04-08T00:00:57.727Z,1006.34
2016-04-08T00:01:07.727Z,1006.33
2016-04-08T00:01:17.727Z,1006.38
2016-04-08T00:01:27.727Z,1006.33
2016-04-08T00:01:37.714Z,1006.35
2016-04-08T00:01:47.714Z,1006.32
2016-04-08T00:01:57.698Z,1006.33
2016-04-08T00:02:07.714Z,1006.34
2016-04-08T00:02:17.714Z,1006.37
2016-04-08T00:02:27.682Z,1006.3
2016-04-08T00:02:37.685Z,1006.33
2016-04-08T00:02:47.670Z,1006.36
2016-04-08T00:02:57.685Z,1006.31
2016-04-08T00:03:07.670Z,1006.34
2016-04-08T00:03:17.685Z,1006.35
2016-04-08T00:03:27.670Z,1006.36
2016-04-08T00:03:37.673Z,1006.36
2016-04-08T00:03:47.657Z,1006.32
2016-04-08T00:03:57.673Z,1006.3
2016-04-08T00:04:07.641Z,1006.34
2016-04-08T00:04:17.641Z,1006.35
2016-04-08T00:04:27.641Z,1006.33
2016-04-08T00:04:37.644Z,1006.32
2016-04-08T00:04:47.644Z,1006.31
2016-04-08T00:04:57.629Z,1006.34
2016-04-08T00:05:07.644Z,1006.31
2016-04-08T00:05:17.613Z,1006.33
2016-04-08T00:05:27.613Z,1006.33
2016-04-08T00:05:37.600Z,1006.33
2016-04-08T00:05:47.600Z,1006.33
2016-04-08T00:05:57.600Z,1006.39
2016-04-08T00:06:07.600Z,1006.34
2016-04-08T00:06:17.584Z,1006.33
2016-04-08T00:06:27.584Z,1006.35
2016-04-08T00:06:37.571Z,1006.32
2016-04-08T00:06:47.587Z,1006.35
2016-04-08T00:06:57.571Z,1006.3
2016-04-08T00:07:07.571Z,1006.34
2016-04-08T00:07:17.571Z,1006.29
2016-04-08T00:07:27.556Z,1006.33
2016-04-08T00:07:37.559Z,1006.32
2016-04-08T00:07:47.543Z,1006.32
2016-04-08T00:07:57.543Z,1006.32
2016-04-08T00:08:07.543Z,1006.34
2016-04-08T00:08:17.527Z,1006.32
2016-04-08T00:08:27.527Z,1006.34
2016-04-08T00:08:37.515Z,1006.32
2016-04-08T00:08:47.546Z,1006.28
2016-04-08T00:08:57.530Z,1006.33
2016-04-08T00:09:07.499Z,1006.32
2016-04-08T00:09:17.530Z,1006.31
2016-04-08T00:09:27.499Z,1006.32
2016-04-08T00:09:37.501Z,1006.3
2016-04-08T00:09:47.486Z,1006.31
2016-04-08T00:09:57.501Z,1006.34
2016-04-08T00:10:07.486Z,1006.33
2016-04-08T00:10:17.486Z,1006.33
2016-04-08T00:10:27.486Z,1006.32
2016-04-08T00:10:37.473Z,1006.34
2016-04-08T00:10:47.489Z,1006.34
2016-04-08T00:10:57.457Z,1006.3
2016-04-08T00:11:06.707Z,1006.29
2016-04-08T00:11:17.473Z,1006.28
2016-04-08T00:11:27.442Z,1006.33
2016-04-08T00:11:37.460Z,1006.36
2016-04-08T00:11:47.445Z,1006.31
2016-04-08T00:11:57.445Z,1006.3
2016-04-08T00:12:07.429Z,1006.31
2016-04-08T00:12:17.429Z,1006.34
2016-04-08T00:12:27.429Z,1006.31
2016-04-08T00:12:37.432Z,1006.32
2016-04-08T00:12:47.526Z,1006.31
2016-04-08T00:12:57.573Z,1006.3
2016-04-08T00:13:07.416Z,1006.31
2016-04-08T00:13:17.405Z,1006.32
2016-04-08T00:13:27.405Z,1006.33
2016-04-08T00:13:37.391Z,1006.31
2016-04-08T00:13:47.376Z,1006.34
2016-04-08T00:13:57.376Z,1006.3
2016-04-08T00:14:07.376Z,1006.3
2016-04-08T00:14:17.376Z,1006.33
2016-04-08T00:14:27.391Z,1006.31
2016-04-08T00:14:37.379Z,1006.3
2016-04-08T00:14:47.363Z,1006.31
2016-04-08T00:14:57.363Z,1006.3
2016-04-08T00:15:07.363Z,1006.29
2016-04-08T00:15:17.347Z,1006.33
2016-04-08T00:15:27.347Z,1006.32
2016-04-08T00:15:37.334Z,1006.3
2016-04-08T00:15:47.334Z,1006.33
2016-04-08T00:15:57.334Z,1006.33
2016-04-08T00:16:07.334Z,1006.3
2016-04-08T00:16:17.318Z,1006.32
2016-04-08T00:16:27.318Z,1006.28
2016-04-08T00:16:37.321Z,1006.29
2016-04-08T00:16:47.305Z,1006.31
2016-04-08T00:16:57.321Z,1006.29
2016-04-08T00:17:07.290Z,1006.3
2016-04-08T00:17:17.305Z,1006.31
2016-04-08T00:17:27.274Z,1006.31
2016-04-08T00:17:37.293Z,1006.29
2016-04-08T00:17:47.277Z,1006.3
2016-04-08T00:17:57.277Z,1006.3
2016-04-08T00:18:07.308Z,1006.29
2016-04-08T00:18:17.262Z,1006.31
2016-04-08T00:18:27.262Z,1006.3
2016-04-08T00:18:37.265Z,1006.32
2016-04-08T00:18:47.249Z,1006.33
2016-04-08T00:18:57.249Z,1006.34
2016-04-08T00:19:07.249Z,1006.34
2016-04-08T00:19:17.233Z,1006.3
2016-04-08T00:19:27.265Z,1006.32
2016-04-08T00:19:37.235Z,1006.34
2016-04-08T00:19:47.220Z,1006.31
2016-04-08T00:19:57.329Z,1006.36
2016-04-08T00:20:07.220Z,1006.31
2016-04-08T00:20:17.220Z,1006.33
2016-04-08T00:20:27.235Z,1006.34
2016-04-08T00:20:37.223Z,1006.39
2016-04-08T00:20:47.207Z,1006.36
2016-04-08T00:20:57.191Z,1006.33
2016-04-08T00:21:07.207Z,1006.34
2016-04-08T00:21:17.191Z,1006.33
2016-04-08T00:21:27.191Z,1006.36
2016-04-08T00:21:37.179Z,1006.35
2016-04-08T00:21:47.194Z,1006.34
2016-04-08T00:21:57.163Z,1006.31
2016-04-08T00:22:07.163Z,1006.3
2016-04-08T00:22:17.163Z,1006.32
2016-04-08T00:22:27.179Z,1006.34
2016-04-08T00:22:37.165Z,1006.33
2016-04-08T00:22:47.150Z,1006.33
2016-04-08T00:22:57.165Z,1006.33
2016-04-08T00:23:06.978Z,1006.34
2016-04-08T00:23:17.134Z,1006.35
2016-04-08T00:23:27.118Z,1006.31
2016-04-08T00:23:37.153Z,1006.33
2016-04-08T00:23:47.121Z,1006.3
2016-04-08T00:23:57.121Z,1006.3
2016-04-08T00:24:07.121Z,1006.29
2016-04-08T00:24:17.106Z,1006.29
2016-04-08T00:24:27.106Z,1006.34
2016-04-08T00:24:37.092Z,1006.29
2016-04-08T00:24:47.108Z,1006.27
2016-04-08T00:24:57.092Z,1006.29
2016-04-08T00:25:07.092Z,1006.31
2016-04-08T00:25:17.076Z,1006.31
2016-04-08T00:25:27.076Z,1006.29
2016-04-08T00:25:37.079Z,1006.29
2016-04-08T00:25:47.079Z,1006.27
2016-04-08T00:25:57.064Z,1006.27
2016-04-08T00:26:07.048Z,1006.27
2016-04-08T00:26:17.064Z,1006.3
2016-04-08T00:26:27.048Z,1006.29
2016-04-08T00:26:37.051Z,1006.33
2016-04-08T00:26:47.036Z,1006.28
2016-04-08T00:26:57.051Z,1006.27
2016-04-08T00:27:07.036Z,1006.3
2016-04-08T00:27:17.036Z,1006.28
2016-04-08T00:27:27.020Z,1006.31
2016-04-08T00:27:37.038Z,1006.25
2016-04-08T00:27:47.131Z,1006.3
2016-04-08T00:27:57.209Z,1006.26
2016-04-08T00:28:07.022Z,1006.27
2016-04-08T00:28:17.038Z,1006.3
2016-04-08T00:28:27.006Z,1006.28
2016-04-08T00:28:37.009Z,1006.27
2016-04-08T00:28:47.009Z,1006.3
2016-04-08T00:28:56.978Z,1006.29
2016-04-08T00:29:06.978Z,1006.28
2016-04-08T00:29:16.978Z,1006.27
2016-04-08T00:29:26.978Z,1006.25
2016-04-08T00:29:36.964Z,1006.27
2016-04-08T00:29:46.964Z,1006.27
2016-04-08T00:29:56.964Z,1006.28
2016-04-08T00:30:06.949Z,1006.28
2016-04-08T00:30:16.949Z,1006.28
2016-04-08T00:30:26.949Z,1006.31
2016-04-08T00:30:36.936Z,1006.25
2016-04-08T00:30:46.936Z,1006.23
2016-04-08T00:30:56.936Z,1006.31
2016-04-08T00:31:06.921Z,1006.27
2016-04-08T00:31:16.952Z,1006.28
2016-04-08T00:31:26.952Z,1006.25
2016-04-08T00:31:36.924Z,1006.3
2016-04-08T00:31:46.908Z,1006.25
2016-04-08T00:31:56.908Z,1006.28
2016-04-08T00:32:06.908Z,1006.28
2016-04-08T00:32:16.892Z,1006.27
2016-04-08T00:32:26.908Z,1006.28
2016-04-08T00:32:36.894Z,1006.27
2016-04-08T00:32:46.879Z,1006.27
2016-04-08T00:32:56.879Z,1006.28
2016-04-08T00:33:06.879Z,1006.26
2016-04-08T00:33:16.879Z,1006.26
2016-04-08T00:33:26.863Z,1006.32
2016-04-08T00:33:36.883Z,1006.29
2016-04-08T00:33:46.867Z,1006.31
2016-04-08T00:33:56.851Z,1006.26
2016-04-08T00:34:06.836Z,1006.27
2016-04-08T00:34:16.836Z,1006.28
2016-04-08T00:34:26.836Z,1006.25
2016-04-08T00:34:36.838Z,1006.28
2016-04-08T00:34:46.822Z,1006.28
2016-04-08T00:34:56.822Z,1006.23
2016-04-08T00:35:06.838Z,1006.3
2016-04-08T00:35:16.822Z,1006.31
2016-04-08T00:35:26.822Z,1006.3
2016-04-08T00:35:36.810Z,1006.31
2016-04-08T00:35:46.825Z,1006.31
2016-04-08T00:35:56.794Z,1006.33
2016-04-08T00:36:06.810Z,1006.32
2016-04-08T00:36:16.638Z,1006.32
2016-04-08T00:36:26.794Z,1006.31
2016-04-08T00:36:36.781Z,1006.3
2016-04-08T00:36:46.781Z,1006.31
2016-04-08T00:36:56.781Z,1006.29
2016-04-08T00:37:06.766Z,1006.29
2016-04-08T00:37:16.781Z,1006.3
2016-04-08T00:37:26.766Z,1006.33
2016-04-08T00:37:36.752Z,1006.31
2016-04-08T00:37:46.752Z,1006.31
2016-04-08T00:37:56.752Z,1006.32
2016-04-08T00:38:06.783Z,1006.34
2016-04-08T00:38:16.736Z,1006.31
2016-04-08T00:38:26.721Z,1006.33
2016-04-08T00:38:36.739Z,1006.3
2016-04-08T00:38:46.739Z,1006.34
2016-04-08T00:38:56.739Z,1006.31
2016-04-08T00:39:06.724Z,1006.31
2016-04-08T00:39:16.708Z,1006.32
2016-04-08T00:39:26.708Z,1006.31
2016-04-08T00:39:36.696Z,1006.31
2016-04-08T00:39:46.696Z,1006.3
2016-04-08T00:39:56.696Z,1006.3
2016-04-08T00:40:06.711Z,1006.32
2016-04-08T00:40:16.696Z,1006.29
2016-04-08T00:40:26.711Z,1006.35
2016-04-08T00:40:36.666Z,1006.34
2016-04-08T00:40:46.666Z,1006.34
2016-04-08T00:40:56.666Z,1006.34
2016-04-08T00:41:06.682Z,1006.31
2016-04-08T00:41:16.494Z,1006.31
2016-04-08T00:41:26.666Z,1006.32
2016-04-08T00:41:36.654Z,1006.35
2016-04-08T00:41:46.654Z,1006.31
2016-04-08T00:41:56.654Z,1006.3
2016-04-08T00:42:06.638Z,1006.29
2016-04-08T00:42:16.622Z,1006.33
2016-04-08T00:42:26.622Z,1006.33
2016-04-08T00:42:36.624Z,1006.33
2016-04-08T00:42:46.656Z,1006.31
2016-04-08T00:42:56.812Z,1006.35
2016-04-08T00:43:06.609Z,1006.33
2016-04-08T00:43:16.593Z,1006.34
2016-04-08T00:43:26.609Z,1006.34
2016-04-08T00:43:36.596Z,1006.33
2016-04-08T00:43:46.596Z,1006.33
2016-04-08T00:43:56.596Z,1006.32
2016-04-08T00:44:06.581Z,1006.36
2016-04-08T00:44:16.596Z,1006.36
2016-04-08T00:44:26.565Z,1006.34
2016-04-08T00:44:36.568Z,1006.33
2016-04-08T00:44:46.568Z,1006.34
2016-04-08T00:44:56.568Z,1006.34
2016-04-08T00:45:06.552Z,1006.28
2016-04-08T00:45:16.568Z,1006.32
2016-04-08T00:45:26.552Z,1006.28
2016-04-08T00:45:36.554Z,1006.33
2016-04-08T00:45:46.539Z,1006.31
2016-04-08T00:45:56.539Z,1006.32
2016-04-08T00:46:06.539Z,1006.31
2016-04-08T00:46:16.507Z,1006.31
2016-04-08T00:46:26.523Z,1006.33
2016-04-08T00:46:36.510Z,1006.34
2016-04-08T00:46:46.495Z,1006.3
2016-04-08T00:46:56.510Z,1006.3
2016-04-08T00:47:06.495Z,1006.36
2016-04-08T00:47:16.495Z,1006.32
2016-04-08T00:47:26.495Z,1006.32
2016-04-08T00:47:36.482Z,1006.35
2016-04-08T00:47:46.498Z,1006.34
2016-04-08T00:47:56.482Z,1006.36
2016-04-08T00:48:06.467Z,1006.36
2016-04-08T00:48:16.482Z,1006.34
2016-04-08T00:48:26.467Z,1006.32
2016-04-08T00:48:36.470Z,1006.3
2016-04-08T00:48:46.454Z,1006.32
2016-04-08T00:48:56.454Z,1006.34
2016-04-08T00:49:06.454Z,1006.36
2016-04-08T00:49:16.438Z,1006.31
2016-04-08T00:49:26.438Z,1006.3
2016-04-08T00:49:36.473Z,1006.33
2016-04-08T00:49:46.441Z,1006.28
2016-04-08T00:49:56.426Z,1006.32
2016-04-08T00:50:06.426Z,1006.28
2016-04-08T00:50:16.410Z,1006.32
2016-04-08T00:50:26.426Z,1006.34
2016-04-08T00:50:36.428Z,1006.32
2016-04-08T00:50:46.412Z,1006.35
2016-04-08T00:50:56.396Z,1006.34
2016-04-08T00:51:06.396Z,1006.35
2016-04-08T00:51:16.381Z,1006.35
2016-04-08T00:51:26.396Z,1006.36
2016-04-08T00:51:36.384Z,1006.35
2016-04-08T00:51:46.384Z,1006.32
2016-04-08T00:51:56.384Z,1006.34
2016-04-08T00:52:06.368Z,1006.32
2016-04-08T00:52:16.368Z,1006.36
2016-04-08T00:52:26.353Z,1006.33
2016-04-08T00:52:36.355Z,1006.36
2016-04-08T00:52:46.355Z,1006.36
2016-04-08T00:52:56.355Z,1006.34
2016-04-08T00:53:06.339Z,1006.32
2016-04-08T00:53:16.339Z,1006.34
2016-04-08T00:53:26.339Z,1006.33
2016-04-08T00:53:36.342Z,1006.35
2016-04-08T00:53:46.326Z,1006.34
2016-04-08T00:53:56.342Z,1006.38
2016-04-08T00:54:06.311Z,1006.32
2016-04-08T00:54:16.311Z,1006.37
2016-04-08T00:54:26.311Z,1006.35
2016-04-08T00:54:36.314Z,1006.38
2016-04-08T00:54:46.298Z,1006.34
2016-04-08T00:54:56.298Z,1006.33
2016-04-08T00:55:06.298Z,1006.38
2016-04-08T00:55:16.282Z,1006.33
2016-04-08T00:55:26.282Z,1006.35
2016-04-08T00:55:36.284Z,1006.35
2016-04-08T00:55:46.284Z,1006.34
2016-04-08T00:55:56.269Z,1006.33
2016-04-08T00:56:06.253Z,1006.36
2016-04-08T00:56:16.269Z,1006.34
2016-04-08T00:56:26.253Z,1006.33
2016-04-08T00:56:36.257Z,1006.37
2016-04-08T00:56:46.257Z,1006.35
2016-04-08T00:56:56.242Z,1006.34
2016-04-08T00:57:06.242Z,1006.36
2016-04-08T00:57:16.226Z,1006.33
2016-04-08T00:57:26.242Z,1006.34
2016-04-08T00:57:36.228Z,1006.3
2016-04-08T00:57:46.244Z,1006.31
2016-04-08T00:57:56.431Z,1006.33
2016-04-08T00:58:06.197Z,1006.33
2016-04-08T00:58:16.212Z,1006.33
2016-04-08T00:58:26.197Z,1006.34
2016-04-08T00:58:36.200Z,1006.31
2016-04-08T00:58:46.200Z,1006.33
2016-04-08T00:58:56.200Z,1006.35
2016-04-08T00:59:06.184Z,1006.35
2016-04-08T00:59:16.184Z,1006.3
2016-04-08T00:59:26.168Z,1006.34
2016-04-08T00:59:36.186Z,1006.33
2016-04-08T00:59:46.170Z,1006.29
2016-04-08T00:59:56.170Z,1006.31
2016-04-08T01:00:06.155Z,1006.31
2016-04-08T01:00:16.155Z,1006.27
2016-04-08T01:00:26.155Z,1006.31
2016-04-08T01:00:36.158Z,1006.35
2016-04-08T01:00:46.142Z,1006.28
2016-04-08T01:00:56.142Z,1006.3
2016-04-08T01:01:06.142Z,1006.3
2016-04-08T01:01:16.127Z,1006.25
2016-04-08T01:01:26.127Z,1006.3
2016-04-08T01:01:36.114Z,1006.31
2016-04-08T01:01:46.130Z,1006.29
2016-04-08T01:01:56.114Z,1006.32
2016-04-08T01:02:06.114Z,1006.28
2016-04-08T01:02:16.114Z,1006.27
2016-04-08T01:02:26.098Z,1006.28
2016-04-08T01:02:35.944Z,1006.31
2016-04-08T01:02:46.085Z,1006.28
2016-04-08T01:02:56.100Z,1006.24
2016-04-08T01:03:06.069Z,1006.25
2016-04-08T01:03:16.069Z,1006.3
2016-04-08T01:03:26.085Z,1006.22
2016-04-08T01:03:36.072Z,1006.29
2016-04-08T01:03:46.072Z,1006.26
2016-04-08T01:03:56.056Z,1006.25
2016-04-08T01:04:06.072Z,1006.23
2016-04-08T01:04:16.056Z,1006.25
2016-04-08T01:04:26.056Z,1006.25
2016-04-08T01:04:36.044Z,1006.23
2016-04-08T01:04:46.028Z,1006.26
2016-04-08T01:04:56.028Z,1006.23
2016-04-08T01:05:06.028Z,1006.24
2016-04-08T01:05:16.028Z,1006.26
2016-04-08T01:05:26.013Z,1006.24
2016-04-08T01:05:36.015Z,1006.22
2016-04-08T01:05:46.015Z,1006.25
2016-04-08T01:05:55.999Z,1006.21
2016-04-08T01:06:05.999Z,1006.23
2016-04-08T01:06:15.999Z,1006.24
2016-04-08T01:06:25.983Z,1006.26
2016-04-08T01:06:36.002Z,1006.23
2016-04-08T01:06:45.986Z,1006.27
2016-04-08T01:06:55.986Z,1006.26
2016-04-08T01:07:05.955Z,1006.24
2016-04-08T01:07:15.971Z,1006.27
2016-04-08T01:07:25.971Z,1006.26
2016-04-08T01:07:35.974Z,1006.22
2016-04-08T01:07:45.958Z,1006.24
2016-04-08T01:07:55.958Z,1006.23
2016-04-08T01:08:05.958Z,1006.25
2016-04-08T01:08:15.942Z,1006.25
2016-04-08T01:08:25.974Z,1006.26
2016-04-08T01:08:35.944Z,1006.24
2016-04-08T01:08:45.929Z,1006.25
2016-04-08T01:08:55.929Z,1006.23
2016-04-08T01:09:05.913Z,1006.23
2016-04-08T01:09:15.913Z,1006.25
2016-04-08T01:09:25.929Z,1006.26
2016-04-08T01:09:35.917Z,1006.27
2016-04-08T01:09:45.917Z,1006.24
2016-04-08T01:09:55.902Z,1006.25
2016-04-08T01:10:05.886Z,1006.28
2016-04-08T01:10:15.917Z,1006.25
2016-04-08T01:10:25.886Z,1006.25
2016-04-08T01:10:35.888Z,1006.28
2016-04-08T01:10:45.872Z,1006.26
2016-04-08T01:10:55.888Z,1006.31
2016-04-08T01:11:05.872Z,1006.24
2016-04-08T01:11:15.857Z,1006.27
2016-04-08T01:11:25.857Z,1006.28
2016-04-08T01:11:35.860Z,1006.25
2016-04-08T01:11:45.875Z,1006.23
2016-04-08T01:11:55.844Z,1006.27
2016-04-08T01:12:05.860Z,1006.28
2016-04-08T01:12:15.828Z,1006.28
2016-04-08T01:12:25.844Z,1006.28
2016-04-08T01:12:35.831Z,1006.26
2016-04-08T01:12:45.753Z,1006.3
2016-04-08T01:12:55.847Z,1006.27
2016-04-08T01:13:05.831Z,1006.29
2016-04-08T01:13:15.800Z,1006.29
2016-04-08T01:13:25.816Z,1006.27
2016-04-08T01:13:35.833Z,1006.26
2016-04-08T01:13:45.802Z,1006.28
2016-04-08T01:13:55.787Z,1006.25
2016-04-08T01:14:05.802Z,1006.26
2016-04-08T01:14:15.787Z,1006.3
2016-04-08T01:14:25.787Z,1006.26
2016-04-08T01:14:35.774Z,1006.28
2016-04-08T01:14:45.774Z,1006.31
2016-04-08T01:14:55.602Z,1006.28
2016-04-08T01:15:05.774Z,1006.25
2016-04-08T01:15:15.758Z,1006.26
2016-04-08T01:15:25.743Z,1006.25
2016-04-08T01:15:35.745Z,1006.28
2016-04-08T01:15:45.745Z,1006.26
2016-04-08T01:15:55.745Z,1006.26
2016-04-08T01:16:05.729Z,1006.24
2016-04-08T01:16:15.745Z,1006.24
2016-04-08T01:16:25.729Z,1006.24
2016-04-08T01:16:35.732Z,1006.18
2016-04-08T01:16:45.701Z,1006.22
2016-04-08T01:16:55.716Z,1006.18
2016-04-08T01:17:05.701Z,1006.23
2016-04-08T01:17:15.701Z,1006.21
2016-04-08T01:17:25.685Z,1006.21
2016-04-08T01:17:35.704Z,1006.2
2016-04-08T01:17:45.704Z,1006.16
2016-04-08T01:17:55.704Z,1006.19
2016-04-08T01:18:05.688Z,1006.2
2016-04-08T01:18:15.673Z,1006.22
2016-04-08T01:18:25.688Z,1006.21
2016-04-08T01:18:35.659Z,1006.22
2016-04-08T01:18:45.675Z,1006.21
2016-04-08T01:18:55.659Z,1006.23
2016-04-08T01:19:05.659Z,1006.18
2016-04-08T01:19:15.643Z,1006.21
2016-04-08T01:19:25.643Z,1006.23
2016-04-08T01:19:35.646Z,1006.25
2016-04-08T01:19:45.631Z,1006.27
2016-04-08T01:19:55.646Z,1006.24
2016-04-08T01:20:05.631Z,1006.2
2016-04-08T01:20:15.631Z,1006.22
2016-04-08T01:20:25.662Z,1006.27
2016-04-08T01:20:35.633Z,1006.25
2016-04-08T01:20:45.601Z,1006.23
2016-04-08T01:20:55.617Z,1006.24
2016-04-08T01:21:05.601Z,1006.24
2016-04-08T01:21:15.601Z,1006.23
2016-04-08T01:21:25.601Z,1006.21
2016-04-08T01:21:35.589Z,1006.22
2016-04-08T01:21:45.573Z,1006.23
2016-04-08T01:21:55.573Z,1006.25
2016-04-08T01:22:05.589Z,1006.23
2016-04-08T01:22:15.573Z,1006.26
2016-04-08T01:22:25.589Z,1006.26
2016-04-08T01:22:35.561Z,1006.21
2016-04-08T01:22:45.607Z,1006.21
2016-04-08T01:22:55.576Z,1006.22
2016-04-08T01:23:05.561Z,1006.24
2016-04-08T01:23:15.545Z,1006.26
2016-04-08T01:23:25.529Z,1006.24
2016-04-08T01:23:35.532Z,1006.25
2016-04-08T01:23:45.548Z,1006.25
2016-04-08T01:23:55.532Z,1006.23
2016-04-08T01:24:05.532Z,1006.28
2016-04-08T01:24:15.532Z,1006.24
2016-04-08T01:24:25.517Z,1006.22
2016-04-08T01:24:35.520Z,1006.27
2016-04-08T01:24:45.504Z,1006.24
2016-04-08T01:24:55.504Z,1006.25
2016-04-08T01:25:05.488Z,1006.25
2016-04-08T01:25:15.488Z,1006.24
2016-04-08T01:25:25.488Z,1006.25
2016-04-08T01:25:35.475Z,1006.24
2016-04-08T01:25:45.475Z,1006.25
2016-04-08T01:25:55.459Z,1006.21
2016-04-08T01:26:05.475Z,1006.24
2016-04-08T01:26:15.444Z,1006.2
2016-04-08T01:26:25.459Z,1006.2
2016-04-08T01:26:35.447Z,1006.22
2016-04-08T01:26:45.462Z,1006.23
2016-04-08T01:26:55.478Z,1006.24
2016-04-08T01:27:05.431Z,1006.22
2016-04-08T01:27:15.431Z,1006.2
2016-04-08T01:27:25.431Z,1006.21
2016-04-08T01:27:35.433Z,1006.22
2016-04-08T01:27:45.464Z,1006.24
2016-04-08T01:27:55.527Z,1006.21
2016-04-08T01:28:05.417Z,1006.24
2016-04-08T01:28:15.417Z,1006.18
2016-04-08T01:28:25.417Z,1006.19
2016-04-08T01:28:35.420Z,1006.25
2016-04-08T01:28:45.389Z,1006.25
2016-04-08T01:28:55.405Z,1006.24
2016-04-08T01:29:05.389Z,1006.25
2016-04-08T01:29:15.373Z,1006.26
2016-04-08T01:29:25.389Z,1006.22
2016-04-08T01:29:35.376Z,1006.25
2016-04-08T01:29:45.376Z,1006.21
2016-04-08T01:29:55.361Z,1006.21
2016-04-08T01:30:05.361Z,1006.25
2016-04-08T01:30:15.361Z,1006.23
2016-04-08T01:30:25.361Z,1006.22
2016-04-08T01:30:35.347Z,1006.22
2016-04-08T01:30:45.363Z,1006.24
2016-04-08T01:30:55.332Z,1006.21
2016-04-08T01:31:05.332Z,1006.23
2016-04-08T01:31:15.332Z,1006.19
2016-04-08T01:31:25.378Z,1006.21
2016-04-08T01:31:35.319Z,1006.21
2016-04-08T01:31:45.319Z,1006.2
2016-04-08T01:31:55.335Z,1006.2
2016-04-08T01:32:05.303Z,1006.2
2016-04-08T01:32:15.303Z,1006.22
2016-04-08T01:32:25.303Z,1006.19
2016-04-08T01:32:35.322Z,1006.24
2016-04-08T01:32:45.306Z,1006.21
2016-04-08T01:32:55.291Z,1006.2
2016-04-08T01:33:05.291Z,1006.17
2016-04-08T01:33:15.275Z,1006.19
2016-04-08T01:33:25.275Z,1006.18
2016-04-08T01:33:35.278Z,1006.17
2016-04-08T01:33:45.262Z,1006.18
2016-04-08T01:33:55.262Z,1006.18
2016-04-08T01:34:05.262Z,1006.19
2016-04-08T01:34:15.262Z,1006.16
2016-04-08T01:34:25.262Z,1006.2
2016-04-08T01:34:35.234Z,1006.21
2016-04-08T01:34:45.250Z,1006.19
2016-04-08T01:34:55.234Z,1006.18
2016-04-08T01:35:05.234Z,1006.2
2016-04-08T01:35:15.234Z,1006.2
2016-04-08T01:35:25.219Z,1006.23
2016-04-08T01:35:35.222Z,1006.19
2016-04-08T01:35:45.222Z,1006.2
2016-04-08T01:35:55.222Z,1006.17
2016-04-08T01:36:05.190Z,1006.18
2016-04-08T01:36:15.222Z,1006.23
2016-04-08T01:36:25.190Z,1006.19
2016-04-08T01:36:35.208Z,1006.19
2016-04-08T01:36:45.192Z,1006.17
2016-04-08T01:36:55.192Z,1006.21
2016-04-08T01:37:05.192Z,1006.19
2016-04-08T01:37:15.161Z,1006.18
2016-04-08T01:37:25.177Z,1006.18
2016-04-08T01:37:35.164Z,1006.18
2016-04-08T01:37:45.164Z,1006.18
2016-04-08T01:37:55.148Z,1006.16
2016-04-08T01:38:05.180Z,1006.19
2016-04-08T01:38:15.148Z,1006.15
2016-04-08T01:38:25.148Z,1006.21
2016-04-08T01:38:35.135Z,1006.19
2016-04-08T01:38:45.150Z,1006.17
2016-04-08T01:38:55.135Z,1006.14
2016-04-08T01:39:05.135Z,1006.18
2016-04-08T01:39:15.135Z,1006.19
2016-04-08T01:39:25.104Z,1006.21
2016-04-08T01:39:35.107Z,1006.2
2016-04-08T01:39:45.107Z,1006.19
2016-04-08T01:39:54.966Z,1006.23
2016-04-08T01:40:05.091Z,1006.18
2016-04-08T01:40:15.091Z,1006.21
2016-04-08T01:40:25.091Z,1006.2
2016-04-08T01:40:35.094Z,1006.18
2016-04-08T01:40:45.094Z,1006.18
2016-04-08T01:40:55.078Z,1006.22
2016-04-08T01:41:05.078Z,1006.23
2016-04-08T01:41:15.063Z,1006.18
2016-04-08T01:41:24.922Z,1006.22
2016-04-08T01:41:35.049Z,1006.19
2016-04-08T01:41:45.049Z,1006.17
2016-04-08T01:41:55.049Z,1006.19
2016-04-08T01:42:05.049Z,1006.18
2016-04-08T01:42:15.033Z,1006.21
2016-04-08T01:42:25.049Z,1006.22
2016-04-08T01:42:35.036Z,1006.22
2016-04-08T01:42:45.036Z,1006.19
2016-04-08T01:42:55.021Z,1006.22
2016-04-08T01:43:05.115Z,1006.2
2016-04-08T01:43:15.021Z,1006.22
2016-04-08T01:43:25.005Z,1006.18
2016-04-08T01:43:35.007Z,1006.19
2016-04-08T01:43:44.992Z,1006.23
2016-04-08T01:43:54.992Z,1006.21
2016-04-08T01:44:04.992Z,1006.2
2016-04-08T01:44:14.976Z,1006.18
2016-04-08T01:44:24.992Z,1006.21
2016-04-08T01:44:34.963Z,1006.21
2016-04-08T01:44:44.995Z,1006.23
2016-04-08T01:44:54.963Z,1006.14
2016-04-08T01:45:04.963Z,1006.2
2016-04-08T01:45:14.963Z,1006.19
2016-04-08T01:45:24.948Z,1006.24
2016-04-08T01:45:34.951Z,1006.21
2016-04-08T01:45:44.951Z,1006.2
2016-04-08T01:45:54.935Z,1006.22
2016-04-08T01:46:04.951Z,1006.22
2016-04-08T01:46:14.951Z,1006.21
2016-04-08T01:46:24.779Z,1006.19
2016-04-08T01:46:34.922Z,1006.21
2016-04-08T01:46:44.938Z,1006.2
2016-04-08T01:46:54.938Z,1006.22
2016-04-08T01:47:04.922Z,1006.25
2016-04-08T01:47:14.907Z,1006.2
2016-04-08T01:47:24.907Z,1006.22
2016-04-08T01:47:34.910Z,1006.18
2016-04-08T01:47:44.894Z,1006.22
2016-04-08T01:47:54.910Z,1006.2
2016-04-08T01:48:04.879Z,1006.22
2016-04-08T01:48:14.879Z,1006.2
2016-04-08T01:48:24.879Z,1006.19
2016-04-08T01:48:34.881Z,1006.17
2016-04-08T01:48:44.865Z,1006.17
2016-04-08T01:48:54.865Z,1006.19
2016-04-08T01:49:04.865Z,1006.18
2016-04-08T01:49:14.865Z,1006.19
2016-04-08T01:49:24.849Z,1006.22
2016-04-08T01:49:34.852Z,1006.18
2016-04-08T01:49:44.852Z,1006.25
2016-04-08T01:49:54.852Z,1006.21
2016-04-08T01:50:04.852Z,1006.16
2016-04-08T01:50:14.821Z,1006.18
2016-04-08T01:50:24.821Z,1006.19
2016-04-08T01:50:34.823Z,1006.16
2016-04-08T01:50:44.839Z,1006.18
2016-04-08T01:50:54.823Z,1006.17
2016-04-08T01:51:04.807Z,1006.18
2016-04-08T01:51:14.807Z,1006.21
2016-04-08T01:51:24.792Z,1006.22
2016-04-08T01:51:34.810Z,1006.16
2016-04-08T01:51:44.779Z,1006.18
2016-04-08T01:51:54.779Z,1006.18
2016-04-08T01:52:04.779Z,1006.2
2016-04-08T01:52:14.779Z,1006.22
2016-04-08T01:52:24.795Z,1006.22
2016-04-08T01:52:34.782Z,1006.21
2016-04-08T01:52:44.751Z,1006.22
2016-04-08T01:52:54.751Z,1006.19
2016-04-08T01:53:04.751Z,1006.22
2016-04-08T01:53:14.767Z,1006.2
2016-04-08T01:53:24.751Z,1006.2
2016-04-08T01:53:34.753Z,1006.22
2016-04-08T01:53:44.737Z,1006.22
2016-04-08T01:53:54.722Z,1006.21
2016-04-08T01:54:04.737Z,1006.25
2016-04-08T01:54:14.753Z,1006.22
2016-04-08T01:54:24.722Z,1006.23
2016-04-08T01:54:34.709Z,1006.23
2016-04-08T01:54:44.725Z,1006.22
2016-04-08T01:54:54.709Z,1006.2
2016-04-08T01:55:04.725Z,1006.21
2016-04-08T01:55:14.693Z,1006.21
2016-04-08T01:55:24.693Z,1006.2
2016-04-08T01:55:34.695Z,1006.22
2016-04-08T01:55:44.695Z,1006.27
2016-04-08T01:55:54.695Z,1006.24
2016-04-08T01:56:04.680Z,1006.22
2016-04-08T01:56:14.664Z,1006.25
2016-04-08T01:56:24.664Z,1006.26
2016-04-08T01:56:34.683Z,1006.27
2016-04-08T01:56:44.667Z,1006.26
2016-04-08T01:56:54.652Z,1006.27
2016-04-08T01:57:04.652Z,1006.28
2016-04-08T01:57:14.636Z,1006.28
2016-04-08T01:57:24.652Z,1006.22
2016-04-08T01:57:34.655Z,1006.26
2016-04-08T01:57:44.639Z,1006.26
2016-04-08T01:57:54.623Z,1006.25
2016-04-08T01:58:04.811Z,1006.26
2016-04-08T01:58:14.623Z,1006.26
2016-04-08T01:58:24.608Z,1006.22
2016-04-08T01:58:34.611Z,1006.25
2016-04-08T01:58:44.595Z,1006.23
2016-04-08T01:58:54.611Z,1006.23
2016-04-08T01:59:04.595Z,1006.24
2016-04-08T01:59:14.595Z,1006.24
2016-04-08T01:59:24.579Z,1006.24
2016-04-08T01:59:34.598Z,1006.21
2016-04-08T01:59:44.567Z,1006.26
2016-04-08T01:59:54.582Z,1006.27
2016-04-08T02:00:04.551Z,1006.23
2016-04-08T02:00:14.551Z,1006.21
2016-04-08T02:00:24.551Z,1006.24
2016-04-08T02:00:34.569Z,1006.24
2016-04-08T02:00:44.553Z,1006.23
2016-04-08T02:00:54.553Z,1006.25
2016-04-08T02:01:04.538Z,1006.2
2016-04-08T02:01:14.538Z,1006.27
2016-04-08T02:01:24.553Z,1006.26